createdAt,value
2023-04-19T00:00:18.344Z,51.30
2023-04-19T00:03:07.969Z,49.20
2023-04-19T00:05:38.413Z,49.80
2023-04-19T00:08:06.540Z,43.50
2023-04-19T00:10:40.090Z,48.70
2023-04-19T00:13:08.235Z,45.40
2023-04-19T00:15:36.405Z,47.90
2023-04-19T00:18:04.557Z,50.10
2023-04-19T00:20:33.127Z,43.00
2023-04-19T00:23:01.197Z,45.10
2023-04-19T00:25:31.216Z,46.00
2023-04-19T00:27:59.262Z,48.90
2023-04-19T00:30:28.308Z,47.00
2023-04-19T00:32:56.349Z,47.90
2023-04-19T00:35:26.047Z,39.10
2023-04-19T00:37:54.259Z,44.40
2023-04-19T00:40:22.302Z,44.10
2023-04-19T00:42:50.478Z,40.70
2023-04-19T00:45:18.605Z,40.40
2023-04-19T00:47:46.575Z,43.40
2023-04-19T00:50:14.856Z,44.90
2023-04-19T00:52:43.148Z,45.40
2023-04-19T00:55:11.148Z,49.10
2023-04-19T00:57:39.235Z,42.40
2023-04-19T01:00:09.896Z,42.80
2023-04-19T01:02:38.263Z,41.40
2023-04-19T01:05:07.217Z,39.20
2023-04-19T01:07:35.440Z,39.70
2023-04-19T01:10:03.977Z,37.00
2023-04-19T01:12:31.971Z,36.50
2023-04-19T01:15:00.081Z,42.20
2023-04-19T01:17:30.299Z,40.80
2023-04-19T01:20:03.457Z,39.90
2023-04-19T01:22:32.144Z,34.40
2023-04-19T01:25:00.804Z,36.20
2023-04-19T01:27:28.721Z,41.10
2023-04-19T01:29:59.096Z,38.00
2023-04-19T01:32:28.287Z,37.60
2023-04-19T01:34:57.634Z,35.70
2023-04-19T01:37:25.614Z,40.30
2023-04-19T01:39:53.837Z,41.50
2023-04-19T01:42:22.014Z,39.90
2023-04-19T01:44:50.006Z,39.30
2023-04-19T01:47:18.180Z,40.00
2023-04-19T01:49:46.432Z,40.10
2023-04-19T01:52:14.402Z,35.30
2023-04-19T01:54:42.576Z,42.10
2023-04-19T01:57:10.648Z,36.10
2023-04-19T01:59:38.723Z,40.70
2023-04-19T02:02:08.392Z,36.80
2023-04-19T02:04:37.513Z,40.30
2023-04-19T02:07:06.822Z,43.30
2023-04-19T02:09:38.931Z,42.00
2023-04-19T02:12:07.135Z,37.20
2023-04-19T02:14:36.161Z,35.80
2023-04-19T02:17:04.759Z,42.20
2023-04-19T02:19:33.534Z,39.70
2023-04-19T02:22:01.468Z,39.10
2023-04-19T02:24:29.675Z,40.40
2023-04-19T02:26:58.307Z,37.50
2023-04-19T02:29:26.285Z,36.30
2023-04-19T02:31:54.292Z,42.80
2023-04-19T02:34:22.322Z,41.90
2023-04-19T02:36:50.541Z,37.30
2023-04-19T02:39:18.724Z,36.40
2023-04-19T02:41:46.829Z,37.40
2023-04-19T02:44:15.268Z,41.10
2023-04-19T02:46:53.480Z,38.30
2023-04-19T02:49:21.731Z,36.90
2023-04-19T02:51:51.764Z,41.20
2023-04-19T02:54:19.867Z,38.60
2023-04-19T02:56:48.120Z,37.50
2023-04-19T02:59:16.913Z,34.10
2023-04-19T03:01:45.873Z,40.10
2023-04-19T03:04:14.800Z,35.60
2023-04-19T03:06:44.440Z,38.40
2023-04-19T03:09:13.102Z,36.40
2023-04-19T03:11:41.157Z,34.90
2023-04-19T03:14:09.226Z,40.20
2023-04-19T03:16:39.194Z,33.60
2023-04-19T03:19:07.417Z,39.50
2023-04-19T03:21:39.704Z,41.30
2023-04-19T03:24:08.180Z,36.70
2023-04-19T03:26:37.012Z,37.70
2023-04-19T03:29:05.267Z,41.70
2023-04-19T03:31:53.568Z,35.10
2023-04-19T03:34:21.641Z,39.30
2023-04-19T03:36:50.001Z,37.10
2023-04-19T03:39:18.094Z,37.00
2023-04-19T03:41:47.805Z,35.10
2023-04-19T03:44:25.098Z,39.20
2023-04-19T03:46:54.182Z,37.60
2023-04-19T03:52:00.138Z,37.20
2023-04-19T03:54:28.438Z,37.00
2023-04-19T03:56:57.321Z,34.60
2023-04-19T03:59:26.013Z,32.40
2023-04-19T04:01:55.079Z,33.60
2023-04-19T04:04:24.223Z,34.90
2023-04-19T04:06:52.720Z,35.80
2023-04-19T04:09:20.902Z,33.00
2023-04-19T04:11:49.101Z,34.50
2023-04-19T04:14:17.562Z,30.80
2023-04-19T04:16:47.007Z,35.70
2023-04-19T04:19:15.805Z,33.20
2023-04-19T04:21:43.833Z,31.60
2023-04-19T04:24:12.582Z,32.50
2023-04-19T04:26:52.210Z,35.40
2023-04-19T04:29:29.713Z,33.30
2023-04-19T04:31:59.481Z,33.40
2023-04-19T04:34:31.682Z,33.40
2023-04-19T04:37:05.909Z,31.80
2023-04-19T04:39:39.353Z,30.00
2023-04-19T04:42:09.148Z,31.70
2023-04-19T04:44:39.104Z,29.20
2023-04-19T04:47:08.141Z,33.80
2023-04-19T04:49:41.635Z,34.20
2023-04-19T04:52:10.110Z,33.40
2023-04-19T04:54:44.833Z,29.40
2023-04-19T04:57:21.406Z,31.20
2023-04-19T04:59:49.786Z,31.20
2023-04-19T05:02:19.280Z,27.40
2023-04-19T05:04:47.491Z,30.00
2023-04-19T05:07:15.745Z,30.70
2023-04-19T05:09:44.033Z,33.40
2023-04-19T05:12:13.182Z,33.60
2023-04-19T05:14:41.796Z,32.20
2023-04-19T05:17:09.766Z,31.90
2023-04-19T05:19:38.074Z,29.40
2023-04-19T05:22:07.734Z,30.20
2023-04-19T05:24:36.113Z,27.30
2023-04-19T05:27:04.095Z,28.10
2023-04-19T05:29:32.682Z,36.60
2023-04-19T05:32:00.870Z,30.70
2023-04-19T05:34:32.208Z,31.70
2023-04-19T05:37:00.997Z,30.10
2023-04-19T05:39:29.246Z,29.20
2023-04-19T05:42:00.385Z,31.30
2023-04-19T05:44:28.608Z,27.40
2023-04-19T05:46:56.750Z,26.90
2023-04-19T05:49:54.328Z,26.90
2023-04-19T05:52:29.670Z,32.20
2023-04-19T05:54:59.989Z,26.80
2023-04-19T05:57:28.107Z,30.90
2023-04-19T05:59:56.647Z,30.60
2023-04-19T06:02:27.002Z,28.70
2023-04-19T06:04:55.619Z,27.20
2023-04-19T06:07:32.020Z,27.80
2023-04-19T06:10:02.348Z,28.80
2023-04-19T06:12:30.383Z,29.40
2023-04-19T06:14:58.400Z,30.20
2023-04-19T06:17:27.175Z,36.20
2023-04-19T06:19:55.402Z,29.60
2023-04-19T06:22:23.431Z,27.20
2023-04-19T06:24:51.377Z,28.50
2023-04-19T06:27:19.403Z,25.00
2023-04-19T06:29:48.059Z,19.40
2023-04-19T06:32:18.019Z,24.20
2023-04-19T06:34:46.236Z,25.80
2023-04-19T06:37:14.793Z,26.60
2023-04-19T06:39:42.971Z,24.20
2023-04-19T06:42:12.600Z,30.50
2023-04-19T06:44:40.673Z,27.50
2023-04-19T06:47:08.641Z,26.20
2023-04-19T06:49:37.020Z,24.90
2023-04-19T06:52:05.100Z,23.80
2023-04-19T06:54:33.034Z,24.30
2023-04-19T06:57:02.465Z,28.30
2023-04-19T06:59:32.684Z,27.10
2023-04-19T07:02:00.885Z,22.60
2023-04-19T07:04:29.045Z,26.70
2023-04-19T07:06:57.295Z,27.90
2023-04-19T07:09:25.279Z,25.20
2023-04-19T07:11:53.265Z,24.60
2023-04-19T07:14:21.424Z,24.80
2023-04-19T07:16:50.984Z,25.70
2023-04-19T07:19:21.257Z,26.00
2023-04-19T07:21:49.306Z,26.90
2023-04-19T07:24:17.994Z,24.10
2023-04-19T07:26:46.321Z,24.80
2023-04-19T07:29:14.314Z,23.30
2023-04-19T07:31:42.489Z,25.40
2023-04-19T07:34:10.904Z,28.40
2023-04-19T07:36:39.287Z,22.50
2023-04-19T07:39:07.290Z,21.60
2023-04-19T07:41:36.298Z,24.80
2023-04-19T07:44:04.727Z,25.20
2023-04-19T07:46:32.889Z,21.70
2023-04-19T07:49:00.974Z,24.30
2023-04-19T07:51:29.426Z,23.40
2023-04-19T07:53:57.398Z,21.30
2023-04-19T07:56:26.543Z,24.40
2023-04-19T07:59:06.819Z,25.00
2023-04-19T08:01:37.520Z,20.50
2023-04-19T08:04:06.188Z,22.90
2023-04-19T08:06:34.713Z,22.50
2023-04-19T08:09:03.365Z,24.40
2023-04-19T08:11:32.067Z,21.50
2023-04-19T08:14:09.261Z,20.60
2023-04-19T08:17:19.139Z,20.10
2023-04-19T08:19:31.426Z,18.40
2023-04-19T08:21:59.766Z,20.40
2023-04-19T08:24:27.849Z,24.20
2023-04-19T08:26:58.215Z,23.00
2023-04-19T08:29:27.570Z,20.20
2023-04-19T08:31:55.819Z,22.90
2023-04-19T08:34:23.841Z,19.90
2023-04-19T08:37:03.250Z,22.90
2023-04-19T08:39:34.389Z,19.90
2023-04-19T08:42:10.904Z,22.90
2023-04-19T08:44:59.008Z,21.30
2023-04-19T08:47:34.926Z,19.90
2023-04-19T08:50:17.266Z,20.80
2023-04-19T08:52:58.694Z,18.30
2023-04-19T08:55:29.905Z,20.10
2023-04-19T08:57:58.895Z,18.90
2023-04-19T09:00:26.866Z,21.50
2023-04-19T09:02:56.087Z,19.90
2023-04-19T09:05:24.563Z,20.10
2023-04-19T09:07:52.620Z,19.00
2023-04-19T09:10:22.016Z,19.00
2023-04-19T09:13:05.550Z,18.20
2023-04-19T09:15:38.789Z,18.00
2023-04-19T09:18:10.021Z,17.20
2023-04-19T09:20:40.202Z,18.10
2023-04-19T09:23:12.805Z,18.30
2023-04-19T09:26:19.414Z,18.40
2023-04-19T09:28:56.081Z,18.20
2023-04-19T09:31:43.384Z,19.20
2023-04-19T09:36:46.851Z,16.50
2023-04-19T09:39:28.559Z,17.70
2023-04-19T09:41:56.798Z,17.30
2023-04-19T09:46:56.124Z,17.60
2023-04-19T09:49:37.454Z,17.50
2023-04-19T09:52:15.089Z,15.90
2023-04-19T09:54:43.371Z,18.50
2023-04-19T09:57:11.707Z,19.60
2023-04-19T09:59:39.967Z,17.10
2023-04-19T10:02:11.484Z,17.80
2023-04-19T10:04:57.399Z,15.20
2023-04-19T10:07:31.346Z,15.90
2023-04-19T10:10:15.933Z,17.30
2023-04-19T10:15:26.834Z,15.90
2023-04-19T10:17:57.689Z,16.20
2023-04-19T10:20:49.938Z,14.30
2023-04-19T10:23:20.470Z,18.40
2023-04-19T10:25:48.921Z,13.10
2023-04-19T10:28:17.505Z,16.70
2023-04-19T10:30:56.355Z,15.20
2023-04-19T10:33:27.204Z,12.10
2023-04-19T10:35:59.770Z,13.70
2023-04-19T10:38:44.759Z,14.30
2023-04-19T10:41:16.417Z,13.80
2023-04-19T10:44:09.549Z,12.80
2023-04-19T10:46:40.719Z,12.70
2023-04-19T10:49:10.317Z,12.70
2023-04-19T10:51:42.573Z,12.20
2023-04-19T10:54:32.779Z,12.50
2023-04-19T10:57:06.080Z,10.60
2023-04-19T10:59:35.455Z,13.10
2023-04-19T11:02:06.122Z,10.40
2023-04-19T11:04:57.414Z,10.30
2023-04-19T11:07:25.592Z,14.70
2023-04-19T11:09:53.586Z,13.80
2023-04-19T11:12:22.008Z,12.90
2023-04-19T11:15:00.039Z,13.10
2023-04-19T11:17:32.411Z,21.60
2023-04-19T11:20:06.629Z,17.00
2023-04-19T11:22:39.301Z,11.70
2023-04-19T11:25:14.341Z,12.70
2023-04-19T11:27:44.477Z,13.50
2023-04-19T11:30:13.159Z,9.80
2023-04-19T11:32:49.626Z,10.20
2023-04-19T11:35:22.798Z,9.40
2023-04-19T11:37:51.452Z,9.10
2023-04-19T11:40:22.181Z,12.30
2023-04-19T11:43:00.863Z,11.00
2023-04-19T11:45:34.410Z,8.30
2023-04-19T11:48:14.359Z,7.80
2023-04-19T11:50:44.644Z,9.40
2023-04-19T11:53:21.925Z,9.90
2023-04-19T11:55:53.150Z,9.80
2023-04-19T11:58:49.597Z,11.20
2023-04-19T12:01:22.636Z,10.70
2023-04-19T12:03:51.710Z,10.80
2023-04-19T12:06:25.998Z,8.40
2023-04-19T12:08:55.914Z,7.00
2023-04-19T12:11:27.009Z,10.10
2023-04-19T12:14:14.573Z,7.50
2023-04-19T12:16:45.071Z,7.80
2023-04-19T12:19:20.619Z,7.20
2023-04-19T12:21:48.935Z,7.80
2023-04-19T12:24:17.485Z,8.00
2023-04-19T12:26:57.066Z,8.20
2023-04-19T12:29:25.392Z,6.80
2023-04-19T12:31:53.440Z,7.50
2023-04-19T12:34:21.463Z,7.50
2023-04-19T12:36:50.266Z,7.80
2023-04-19T12:39:18.583Z,6.30
2023-04-19T12:41:48.806Z,7.50
2023-04-19T12:44:16.932Z,6.60
2023-04-19T12:46:44.929Z,5.90
2023-04-19T12:49:13.641Z,6.10
2023-04-19T12:51:42.848Z,6.40
2023-04-19T12:54:11.179Z,6.50
2023-04-19T12:56:39.137Z,8.40
2023-04-19T12:59:07.403Z,6.70
2023-04-19T13:01:35.797Z,6.30
2023-04-19T13:04:04.064Z,6.50
2023-04-19T13:06:32.295Z,5.70
2023-04-19T13:09:01.546Z,5.90
2023-04-19T13:11:29.915Z,7.60
2023-04-19T13:13:57.983Z,5.50
2023-04-19T13:16:26.278Z,5.40
2023-04-19T13:18:55.354Z,7.50
2023-04-19T13:21:24.127Z,6.60
2023-04-19T13:23:53.277Z,7.50
2023-04-19T13:26:21.440Z,5.50
2023-04-19T13:28:49.810Z,5.60
2023-04-19T13:31:17.778Z,5.40
2023-04-19T13:33:46.466Z,5.20
2023-04-19T13:36:14.723Z,5.60
2023-04-19T13:38:42.739Z,5.60
2023-04-19T13:41:11.797Z,6.10
2023-04-19T13:43:39.968Z,4.90
2023-04-19T13:46:07.946Z,5.00
2023-04-19T13:48:36.013Z,5.90
2023-04-19T13:51:04.537Z,5.70
2023-04-19T13:53:33.196Z,6.40
2023-04-19T13:56:01.190Z,6.20
2023-04-19T13:58:29.449Z,5.50
2023-04-19T14:00:57.548Z,4.80
2023-04-19T14:03:26.783Z,6.10
2023-04-19T14:05:55.390Z,6.10
2023-04-19T14:08:23.451Z,4.70
2023-04-19T14:10:51.498Z,4.80
2023-04-19T14:13:19.701Z,5.00
2023-04-19T14:15:47.980Z,8.20
2023-04-19T14:18:16.194Z,5.60
2023-04-19T14:20:45.044Z,4.80
2023-04-19T14:23:13.003Z,5.30
2023-04-19T14:25:40.908Z,6.10
2023-04-19T14:28:08.888Z,6.70
2023-04-19T14:30:36.934Z,7.90
2023-04-19T14:33:04.965Z,6.20
2023-04-19T14:35:33.167Z,7.00
2023-04-19T14:38:01.342Z,5.20
2023-04-19T14:40:29.817Z,8.70
2023-04-19T14:42:57.895Z,5.90
2023-04-19T14:45:26.677Z,5.60
2023-04-19T14:47:54.740Z,4.90
2023-04-19T14:50:23.125Z,5.70
2023-04-19T14:52:51.297Z,3.90
2023-04-19T14:55:19.477Z,5.30
2023-04-19T14:57:47.497Z,5.30
2023-04-19T15:00:16.346Z,5.50
2023-04-19T15:02:44.462Z,5.70
2023-04-19T15:05:13.052Z,4.90
2023-04-19T15:07:41.671Z,4.50
2023-04-19T15:10:10.373Z,4.20
2023-04-19T15:12:38.435Z,4.00
2023-04-19T15:15:07.421Z,7.40
2023-04-19T15:17:35.792Z,6.20
2023-04-19T15:20:05.785Z,3.90
2023-04-19T15:22:34.093Z,4.00
2023-04-19T15:25:02.372Z,5.80
2023-04-19T15:27:31.479Z,4.70
2023-04-19T15:29:59.644Z,5.30
2023-04-19T15:32:30.638Z,5.10
2023-04-19T15:34:58.656Z,4.70
2023-04-19T15:37:27.572Z,5.90
2023-04-19T15:39:56.443Z,4.90
2023-04-19T15:42:24.958Z,3.70
2023-04-19T15:44:52.991Z,4.20
2023-04-19T15:47:21.007Z,5.50
2023-04-19T15:49:49.234Z,5.40
2023-04-19T15:52:18.865Z,5.50
2023-04-19T15:54:46.857Z,8.00
2023-04-19T15:57:14.841Z,6.80
2023-04-19T15:59:42.782Z,5.90
2023-04-19T16:02:11.209Z,6.70
2023-04-19T16:04:39.337Z,5.40
2023-04-19T16:07:07.378Z,5.90
2023-04-19T16:09:36.061Z,6.40
2023-04-19T16:12:04.071Z,6.80
2023-04-19T16:14:32.204Z,7.70
2023-04-19T16:17:03.454Z,6.00
2023-04-19T16:19:31.333Z,6.70
2023-04-19T16:22:02.324Z,6.30
2023-04-19T16:24:30.398Z,5.40
2023-04-19T16:26:58.502Z,6.30
2023-04-19T16:29:27.088Z,6.60
2023-04-19T16:31:55.054Z,5.80
2023-04-19T16:34:25.501Z,6.70
2023-04-19T16:36:53.587Z,5.50
2023-04-19T16:39:22.017Z,5.00
2023-04-19T16:41:50.310Z,6.50
2023-04-19T16:44:18.279Z,6.40
2023-04-19T16:46:46.200Z,6.00
2023-04-19T16:49:14.605Z,7.60
2023-04-19T16:51:42.661Z,6.70
2023-04-19T16:54:10.688Z,8.80
2023-04-19T16:56:38.577Z,6.00
2023-04-19T16:59:06.659Z,9.20
2023-04-19T17:01:34.628Z,9.10
2023-04-19T17:04:02.747Z,10.10
2023-04-19T17:06:32.049Z,10.20
2023-04-19T17:09:05.024Z,10.70
2023-04-19T17:11:34.447Z,13.40
2023-04-19T17:14:02.514Z,11.80
2023-04-19T17:16:30.605Z,9.40
2023-04-19T17:18:58.542Z,12.60
2023-04-19T17:21:27.750Z,11.10
2023-04-19T17:23:55.828Z,11.40
2023-04-19T17:26:23.775Z,13.40
2023-04-19T17:28:51.761Z,14.20
2023-04-19T17:31:20.098Z,17.40
2023-04-19T17:33:48.520Z,13.20
2023-04-19T17:36:16.590Z,16.90
2023-04-19T17:38:45.094Z,12.20
2023-04-19T17:41:16.311Z,12.90
2023-04-19T17:43:45.717Z,13.50
2023-04-19T17:46:14.910Z,14.80
2023-04-19T17:48:42.951Z,11.60
2023-04-19T17:51:11.161Z,12.50
2023-04-19T17:53:39.234Z,9.20
2023-04-19T17:56:07.306Z,13.10
2023-04-19T17:58:36.654Z,10.40
2023-04-19T18:01:06.571Z,13.40
2023-04-19T18:03:35.022Z,13.90
2023-04-19T18:06:03.227Z,12.70
2023-04-19T18:08:31.301Z,13.60
2023-04-19T18:10:59.363Z,12.30
2023-04-19T18:13:28.428Z,15.60
2023-04-19T18:15:56.412Z,14.50
2023-04-19T18:18:24.317Z,19.10
2023-04-19T18:20:52.924Z,15.40
2023-04-19T18:23:20.884Z,13.50
2023-04-19T18:25:55.842Z,19.50
2023-04-19T18:28:23.863Z,13.10
2023-04-19T18:30:51.945Z,19.60
2023-04-19T18:33:20.134Z,17.30
2023-04-19T18:35:48.124Z,18.30
2023-04-19T18:38:16.295Z,17.30
2023-04-19T18:40:44.684Z,18.10
2023-04-19T18:43:12.749Z,17.70
2023-04-19T18:45:41.087Z,17.30
2023-04-19T18:48:09.497Z,18.90
2023-04-19T18:50:38.357Z,19.30
2023-04-19T18:53:06.772Z,20.50
2023-04-19T18:55:35.056Z,23.10
2023-04-19T18:58:03.122Z,23.90
2023-04-19T19:00:31.514Z,21.50
2023-04-19T19:03:00.951Z,17.00
2023-04-19T19:05:30.516Z,22.40
2023-04-19T19:07:58.801Z,24.90
2023-04-19T19:13:02.307Z,18.90
2023-04-19T19:15:30.386Z,21.20
2023-04-19T19:17:58.421Z,29.90
2023-04-19T19:20:26.580Z,22.20
2023-04-19T19:22:54.834Z,23.50
2023-04-19T19:25:23.380Z,22.30
2023-04-19T19:30:27.726Z,20.70
2023-04-19T19:32:56.324Z,22.20
2023-04-19T19:35:25.140Z,20.50
2023-04-19T19:37:53.368Z,20.50
2023-04-19T19:40:22.920Z,23.20
2023-04-19T19:42:51.162Z,26.20
2023-04-19T19:45:19.648Z,19.40
2023-04-19T19:47:49.597Z,20.80
2023-04-19T19:52:51.529Z,22.50
2023-04-19T19:55:19.515Z,22.50
2023-04-19T19:58:23.959Z,23.90
2023-04-19T20:03:07.020Z,23.50
2023-04-19T20:05:35.794Z,21.10
2023-04-19T20:08:10.291Z,22.90
2023-04-19T20:10:40.669Z,25.40
2023-04-19T20:13:09.502Z,20.80
2023-04-19T20:15:38.271Z,25.20
2023-04-19T20:18:06.660Z,24.30
2023-04-19T20:20:36.055Z,19.50
2023-04-19T20:23:04.750Z,20.60
2023-04-19T20:25:32.935Z,22.10
2023-04-19T20:28:01.494Z,19.20
2023-04-19T20:30:29.518Z,23.20
2023-04-19T20:32:57.611Z,24.60
2023-04-19T20:35:26.301Z,22.70
2023-04-19T20:37:54.811Z,23.20
2023-04-19T20:40:23.693Z,24.90
2023-04-19T20:42:52.173Z,19.90
2023-04-19T20:45:20.310Z,21.20
2023-04-19T20:47:48.863Z,24.60
2023-04-19T20:50:16.929Z,26.40
2023-04-19T20:52:45.335Z,25.50
2023-04-19T20:55:13.777Z,44.00
2023-04-19T20:57:41.758Z,26.40
2023-04-19T21:00:10.984Z,25.80
2023-04-19T21:02:39.108Z,24.10
2023-04-19T21:05:07.894Z,26.10
2023-04-19T21:07:35.962Z,23.30
2023-04-19T21:10:05.432Z,27.90
2023-04-19T21:12:34.790Z,22.50
2023-04-19T21:15:04.914Z,19.10
2023-04-19T21:17:32.945Z,27.00
2023-04-19T21:20:02.647Z,25.70
2023-04-19T21:22:30.850Z,22.30
2023-04-19T21:24:58.782Z,21.90
2023-04-19T21:27:26.996Z,24.70
2023-04-19T21:29:55.596Z,24.90
2023-04-19T21:32:24.172Z,25.20
2023-04-19T21:34:52.314Z,30.80
2023-04-19T21:37:21.427Z,24.90
2023-04-19T21:39:49.605Z,30.20
2023-04-19T21:42:18.665Z,28.90
2023-04-19T21:44:46.811Z,21.60
2023-04-19T21:47:14.954Z,29.40
2023-04-19T21:49:42.877Z,22.30
2023-04-19T21:52:10.998Z,28.30
2023-04-19T21:54:38.924Z,23.90
2023-04-19T21:57:06.940Z,32.40
2023-04-19T21:59:36.222Z,28.50
2023-04-19T22:02:04.410Z,25.10
2023-04-19T22:04:32.778Z,25.50
2023-04-19T22:07:03.812Z,23.00
2023-04-19T22:09:31.906Z,26.00
2023-04-19T22:12:01.129Z,27.10
2023-04-19T22:14:30.916Z,26.60
2023-04-19T22:17:02.922Z,33.90
2023-04-19T22:19:31.662Z,35.00
2023-04-19T22:21:59.821Z,24.20
2023-04-19T22:24:27.899Z,24.90
2023-04-19T22:26:57.606Z,23.10
2023-04-19T22:29:25.591Z,23.50
2023-04-19T22:31:53.810Z,28.60
2023-04-19T22:34:22.229Z,25.20
2023-04-19T22:36:50.400Z,26.30
2023-04-19T22:39:18.652Z,21.70
2023-04-19T22:41:47.146Z,27.20
2023-04-19T22:44:15.315Z,20.90
2023-04-19T22:46:44.118Z,26.60
2023-04-19T22:49:12.301Z,21.20
2023-04-19T22:51:42.441Z,32.40
2023-04-19T22:54:10.698Z,24.40
2023-04-19T22:56:39.595Z,27.60
2023-04-19T22:59:08.576Z,27.20
2023-04-19T23:01:36.883Z,22.90
2023-04-19T23:04:05.226Z,29.80
2023-04-19T23:06:33.302Z,24.90
2023-04-19T23:09:01.690Z,25.10
2023-04-19T23:11:30.057Z,26.20
2023-04-19T23:13:58.456Z,22.50
2023-04-19T23:16:26.737Z,31.40
2023-04-19T23:18:55.118Z,26.30
2023-04-19T23:21:23.171Z,29.30
2023-04-19T23:23:51.216Z,21.10
2023-04-19T23:26:19.314Z,29.40
2023-04-19T23:28:47.294Z,20.30
2023-04-19T23:31:15.347Z,21.70
2023-04-19T23:33:43.418Z,24.60
2023-04-19T23:36:11.415Z,17.60
2023-04-19T23:38:39.765Z,17.90
2023-04-19T23:41:11.058Z,25.20
2023-04-19T23:43:39.290Z,23.40
2023-04-19T23:46:07.493Z,23.70
2023-04-19T23:48:35.760Z,28.60
2023-04-19T23:51:03.730Z,24.30
2023-04-19T23:53:31.900Z,24.40
2023-04-19T23:55:59.841Z,22.00
2023-04-19T23:58:27.929Z,19.00
